Time;durP1;ratioP1;P1;durP2;ratioP2;P2;SDS_P1;SDS_P2;PMS_P1;PMS_P2;Temp;Humidity;BMP_temperature;BMP_pressure;BME280_temperature;BME280_humidity;BME280_pressure;Samples;Min_cycle;Max_cycle;Signal;HPM_P1;HPM_P2
2021/05/28 00:01:21;;;;;;;;;;;;;;;7.96;100.00;100110.09;5050737;28;19932;-76
2021/05/28 00:03:49;;;;;;;;;;;;;;;7.77;100.00;100110.25;5051954;28;19979;-75
2021/05/28 00:06:16;;;;;;;;;;;;;;;7.87;100.00;100126.28;5066964;28;19932;-76
2021/05/28 00:08:43;;;;;;;;;;;;;;;7.76;100.00;100139.25;5051606;28;20015;-75
2021/05/28 00:11:10;;;;;;;;;;;;;;;7.76;100.00;100144.00;5070273;28;19928;-75
2021/05/28 00:13:37;;;;;;;;;;;;;;;7.71;100.00;100159.06;5052024;28;19924;-76
2021/05/28 00:16:05;;;;;;;;;;;;;;;7.70;100.00;100163.03;5036429;28;20388;-76
2021/05/28 00:18:32;;;;;;;;;;;;;;;7.64;100.00;100172.88;5039310;28;19956;-76
2021/05/28 00:20:59;;;;;;;;;;;;;;;7.74;100.00;100180.56;5083981;28;19924;-76
2021/05/28 00:23:27;;;;;;;;;;;;;;;7.75;100.00;100195.28;5036622;28;19979;-76
2021/05/28 00:25:57;;;;;;;;;;;;;;;7.73;100.00;100208.75;5050600;28;19951;-76
2021/05/28 00:28:25;;;;;;;;;;;;;;;7.73;100.00;100212.34;5052930;28;19929;-76
2021/05/28 00:30:57;;;;;;;;;;;;;;;7.72;100.00;100221.88;5055532;28;20272;-76
2021/05/28 00:33:25;;;;;;;;;;;;;;;7.73;100.00;100231.84;5055195;28;19929;-76
2021/05/28 00:35:52;;;;;;;;;;;;;;;7.64;100.00;100263.88;5055309;28;20007;-76
2021/05/28 00:38:19;;;;;;;;;;;;;;;7.85;100.00;100272.53;5087149;28;19925;-75
2021/05/28 00:40:46;;;;;;;;;;;;;;;7.87;100.00;100276.56;5050729;28;19948;-75
2021/05/28 00:43:13;;;;;;;;;;;;;;;7.71;100.00;100280.69;5046226;28;19925;-76
2021/05/28 00:45:41;;;;;;;;;;;;;;;7.65;100.00;100280.19;5054041;28;19924;-75
2021/05/28 00:48:08;;;;;;;;;;;;;;;7.78;100.00;100278.00;5055120;28;20380;-75
2021/05/28 00:50:35;;;;;;;;;;;;;;;7.79;100.00;100291.53;5055051;28;20091;-76
2021/05/28 00:53:04;;;;;;;;;;;;;;;7.67;100.00;100288.97;5054784;28;20081;-75
2021/05/28 00:55:31;;;;;;;;;;;;;;;7.78;100.00;100303.84;5039852;28;19936;-76
2021/05/28 00:57:59;;;;;;;;;;;;;;;7.85;100.00;100303.94;5054672;28;19924;-75
2021/05/28 01:00:27;;;;;;;;;;;;;;;7.78;100.00;100309.41;5054936;28;19924;-76
2021/05/28 01:02:55;;;;;;;;;;;;;;;7.84;100.00;100312.66;5052762;28;19925;-76
2021/05/28 01:05:24;;;;;;;;;;;;;;;7.82;100.00;100318.59;5053788;28;19924;-76
2021/05/28 01:07:51;;;;;;;;;;;;;;;7.83;100.00;100325.00;5086551;28;19925;-75
2021/05/28 01:10:18;;;;;;;;;;;;;;;7.79;100.00;100335.25;5063430;28;19932;-76
2021/05/28 01:12:45;;;;;;;;;;;;;;;7.92;100.00;100345.78;5086361;28;19924;-76
2021/05/28 01:15:12;;;;;;;;;;;;;;;7.87;100.00;100348.91;5086891;28;19924;-76
2021/05/28 01:17:39;;;;;;;;;;;;;;;7.91;100.00;100351.72;5054131;28;20007;-76
2021/05/28 01:20:08;;;;;;;;;;;;;;;7.87;100.00;100360.03;5054322;28;19929;-76
2021/05/28 01:22:35;;;;;;;;;;;;;;;8.12;100.00;100372.31;5086373;28;20303;-76
2021/05/28 01:25:03;;;;;;;;;;;;;;;8.12;100.00;100375.13;5054550;28;19971;-75
2021/05/28 01:27:31;;;;;;;;;;;;;;;8.06;100.00;100382.19;5053064;28;19964;-76
2021/05/28 01:29:58;;;;;;;;;;;;;;;8.00;100.00;100383.69;5054235;28;19925;-76
2021/05/28 01:32:25;;;;;;;;;;;;;;;7.77;100.00;100382.91;5086386;28;20347;-76
2021/05/28 01:34:52;;;;;;;;;;;;;;;7.69;100.00;100392.34;5086523;28;20296;-76
2021/05/28 01:37:19;;;;;;;;;;;;;;;7.77;100.00;100399.63;5085721;28;19924;-76
2021/05/28 01:39:48;;;;;;;;;;;;;;;7.83;100.00;100417.59;5054031;28;19932;-76
2021/05/28 01:42:15;;;;;;;;;;;;;;;7.75;100.00;100418.69;5053966;28;19971;-76
2021/05/28 01:44:43;;;;;;;;;;;;;;;7.69;100.00;100419.34;5053876;28;20392;-76
2021/05/28 01:47:12;;;;;;;;;;;;;;;7.73;100.00;100432.16;5053749;28;20093;-76
2021/05/28 01:49:40;;;;;;;;;;;;;;;7.78;100.00;100436.59;5053285;28;19925;-76
2021/05/28 01:52:08;;;;;;;;;;;;;;;7.79;100.00;100447.34;5053330;28;19932;-76
2021/05/28 01:54:39;;;;;;;;;;;;;;;7.76;100.00;100459.22;5053735;28;19928;-76
2021/05/28 01:57:11;;;;;;;;;;;;;;;7.80;100.00;100462.88;5053946;28;19929;-76
2021/05/28 01:59:38;;;;;;;;;;;;;;;7.79;100.00;100469.63;5033878;28;19932;-76
2021/05/28 02:02:06;;;;;;;;;;;;;;;7.83;100.00;100480.81;5046315;28;19925;-76
2021/05/28 02:04:34;;;;;;;;;;;;;;;7.96;100.00;100491.41;5053094;28;19925;-76
2021/05/28 02:07:01;;;;;;;;;;;;;;;8.15;100.00;100499.66;5068660;28;19929;-76
2021/05/28 02:09:28;;;;;;;;;;;;;;;8.10;100.00;100502.78;5052437;28;19925;-76
2021/05/28 02:11:57;;;;;;;;;;;;;;;7.98;100.00;100500.16;5053514;28;19929;-76
2021/05/28 02:14:27;;;;;;;;;;;;;;;7.95;100.00;100508.47;5053270;28;19932;-76
2021/05/28 02:16:54;;;;;;;;;;;;;;;7.95;100.00;100508.47;5053308;28;19929;-75
2021/05/28 02:19:22;;;;;;;;;;;;;;;7.90;100.00;100511.53;5052525;28;19929;-76
2021/05/28 02:21:50;;;;;;;;;;;;;;;7.88;100.00;100509.13;5053651;28;19924;-76
2021/05/28 02:24:17;;;;;;;;;;;;;;;7.98;100.00;100516.84;5085396;28;19931;-76
2021/05/28 02:26:45;;;;;;;;;;;;;;;7.87;100.00;100527.03;5053062;28;20015;-76
2021/05/28 02:29:13;;;;;;;;;;;;;;;7.90;100.00;100523.50;5053106;28;19958;-76
2021/05/28 02:31:41;;;;;;;;;;;;;;;7.91;100.00;100530.66;5052790;28;20379;-76
2021/05/28 02:34:09;;;;;;;;;;;;;;;7.92;100.00;100534.25;5052983;28;19931;-76
2021/05/28 02:36:36;;;;;;;;;;;;;;;7.95;100.00;100533.50;5068429;28;19931;-76
2021/05/28 02:39:05;;;;;;;;;;;;;;;8.04;100.00;100537.63;5052878;28;20392;-76
2021/05/28 02:41:32;;;;;;;;;;;;;;;8.07;100.00;100520.22;5052999;28;20437;-76
2021/05/28 02:44:00;;;;;;;;;;;;;;;7.85;100.00;100515.44;5053079;28;20027;-76
2021/05/28 02:46:29;;;;;;;;;;;;;;;7.86;100.00;100513.47;5052878;28;19963;-76
2021/05/28 02:48:56;;;;;;;;;;;;;;;7.84;100.00;100518.59;5084624;28;19935;-76
2021/05/28 02:51:23;;;;;;;;;;;;;;;7.86;100.00;100525.38;5052470;28;20027;-76
2021/05/28 02:53:50;;;;;;;;;;;;;;;7.85;100.00;100526.56;5052621;28;19925;-76
2021/05/28 02:56:17;;;;;;;;;;;;;;;8.01;100.00;100527.25;5052869;28;19929;-75
2021/05/28 02:58:44;;;;;;;;;;;;;;;7.82;100.00;100530.09;5052591;28;19924;-75
2021/05/28 03:01:11;;;;;;;;;;;;;;;7.81;100.00;100525.72;5077749;28;20347;-76
2021/05/28 03:03:38;;;;;;;;;;;;;;;7.74;100.00;100522.78;5051827;28;19970;-76
2021/05/28 03:06:05;;;;;;;;;;;;;;;7.61;100.00;100529.72;5052146;28;19936;-76
2021/05/28 03:08:33;;;;;;;;;;;;;;;7.63;100.00;100532.13;5084895;28;20395;-76
2021/05/28 03:11:00;;;;;;;;;;;;;;;7.62;100.00;100525.75;5052425;28;19925;-76
2021/05/28 03:13:28;;;;;;;;;;;;;;;7.63;100.00;100537.69;5052300;28;20393;-76
2021/05/28 03:15:55;;;;;;;;;;;;;;;7.71;100.00;100537.44;5084368;28;20377;-76
2021/05/28 03:18:25;;;;;;;;;;;;;;;7.51;100.00;100541.44;5051663;28;20384;-76
2021/05/28 03:21:19;;;;;;;;;;;;;;;7.53;100.00;100544.66;5052447;28;20011;-76
2021/05/28 03:23:46;;;;;;;;;;;;;;;7.68;100.00;100554.09;5084611;28;19932;-76
2021/05/28 03:26:14;;;;;;;;;;;;;;;7.74;100.00;100549.81;5052685;28;20354;-75
2021/05/28 03:28:41;;;;;;;;;;;;;;;7.79;100.00;100557.84;5052411;28;19925;-76
2021/05/28 03:31:08;;;;;;;;;;;;;;;7.82;100.00;100557.94;5052479;28;19970;-76
2021/05/28 03:33:35;;;;;;;;;;;;;;;7.58;100.00;100555.47;5052324;28;19924;-75
2021/05/28 03:36:04;;;;;;;;;;;;;;;7.62;100.00;100553.56;5052181;28;19933;-75
2021/05/28 03:38:31;;;;;;;;;;;;;;;7.70;100.00;100563.66;5052257;28;19987;-75
2021/05/28 03:40:59;;;;;;;;;;;;;;;7.80;100.00;100576.19;5051256;28;19925;-76
2021/05/28 03:43:26;;;;;;;;;;;;;;;7.86;100.00;100572.69;5051041;28;19924;-76
2021/05/28 03:45:53;;;;;;;;;;;;;;;7.84;100.00;100577.03;5051671;28;19928;-76
2021/05/28 03:48:20;;;;;;;;;;;;;;;7.79;100.00;100580.13;5034650;28;20371;-76
2021/05/28 03:50:48;;;;;;;;;;;;;;;7.64;100.00;100579.03;5051017;28;19933;-76
2021/05/28 03:53:15;;;;;;;;;;;;;;;7.78;100.00;100582.13;5051972;28;19925;-76
2021/05/28 03:55:42;;;;;;;;;;;;;;;7.89;100.00;100591.44;5050790;28;19928;-76
2021/05/28 03:58:09;;;;;;;;;;;;;;;7.98;100.00;100586.44;5052131;28;19925;-76
2021/05/28 04:00:36;;;;;;;;;;;;;;;8.08;100.00;100588.63;5050461;28;20450;-76
2021/05/28 04:03:03;;;;;;;;;;;;;;;8.13;100.00;100599.47;5052848;28;19929;-75
2021/05/28 04:05:30;;;;;;;;;;;;;;;8.17;100.00;100599.50;5054887;28;20395;-75
2021/05/28 04:07:58;;;;;;;;;;;;;;;8.10;100.00;100603.00;5056020;28;19924;-76
2021/05/28 04:10:25;;;;;;;;;;;;;;;8.10;100.00;100600.22;5056130;28;19940;-75
2021/05/28 04:12:55;;;;;;;;;;;;;;;7.91;100.00;100603.03;5055815;28;19925;-75
2021/05/28 04:15:22;;;;;;;;;;;;;;;8.05;100.00;100605.25;5055560;28;19929;-76
2021/05/28 04:17:51;;;;;;;;;;;;;;;8.13;100.00;100613.41;5055234;28;19932;-75
2021/05/28 04:20:18;;;;;;;;;;;;;;;8.26;100.00;100616.81;5055664;28;19925;-75
2021/05/28 04:22:45;;;;;;;;;;;;;;;8.40;100.00;100622.66;5055498;28;19948;-76
2021/05/28 04:25:12;;;;;;;;;;;;;;;8.47;100.00;100628.31;5041373;28;19924;-76
2021/05/28 04:27:40;;;;;;;;;;;;;;;8.41;100.00;100630.63;5055347;28;19925;-75
2021/05/28 04:30:07;;;;;;;;;;;;;;;8.27;100.00;100624.00;5055451;28;19929;-75
2021/05/28 04:32:35;;;;;;;;;;;;;;;8.03;100.00;100621.53;5045619;28;19925;-75
2021/05/28 04:35:02;;;;;;;;;;;;;;;8.02;100.00;100620.75;5051574;28;20065;-75
2021/05/28 04:37:29;;;;;;;;;;;;;;;8.02;100.00;100628.28;5054236;28;19924;-75
2021/05/28 04:39:56;;;;;;;;;;;;;;;8.14;100.00;100625.31;5055552;28;19929;-75
2021/05/28 04:42:24;;;;;;;;;;;;;;;8.27;100.00;100640.72;5055763;28;19925;-76
2021/05/28 04:44:51;;;;;;;;;;;;;;;8.41;100.00;100646.53;5053698;28;19968;-76
2021/05/28 04:47:18;;;;;;;;;;;;;;;8.54;100.00;100651.53;5054876;28;19931;-76
2021/05/28 04:49:46;;;;;;;;;;;;;;;8.58;100.00;100658.00;5055093;28;19956;-76
2021/05/28 04:52:13;;;;;;;;;;;;;;;8.66;100.00;100662.50;5087190;28;19924;-76
2021/05/28 04:54:40;;;;;;;;;;;;;;;8.75;100.00;100674.19;5053927;28;19931;-76
2021/05/28 04:57:08;;;;;;;;;;;;;;;8.89;100.00;100671.66;5053805;28;19928;-76
2021/05/28 04:59:35;;;;;;;;;;;;;;;9.08;100.00;100685.50;5053473;28;20284;-76
2021/05/28 05:02:02;;;;;;;;;;;;;;;9.18;100.00;100691.63;5055143;28;19928;-76
2021/05/28 05:04:29;;;;;;;;;;;;;;;9.25;100.00;100706.47;5054944;28;19991;-76
2021/05/28 05:06:57;;;;;;;;;;;;;;;9.30;100.00;100711.72;5054678;28;19929;-76
2021/05/28 05:09:24;;;;;;;;;;;;;;;9.29;100.00;100710.13;5086881;28;20024;-76
2021/05/28 05:11:53;;;;;;;;;;;;;;;9.31;100.00;100710.56;5053522;28;19925;-75
2021/05/28 05:14:20;;;;;;;;;;;;;;;9.37;100.00;100722.19;5052727;28;19963;-76
2021/05/28 05:16:47;;;;;;;;;;;;;;;9.43;100.00;100729.88;5054551;28;20021;-76
2021/05/28 05:19:14;;;;;;;;;;;;;;;9.50;100.00;100734.72;5054442;28;20006;-76
2021/05/28 05:21:42;;;;;;;;;;;;;;;9.59;100.00;100735.28;5053212;28;19924;-76
2021/05/28 05:24:10;;;;;;;;;;;;;;;9.68;100.00;100736.59;5054518;28;19968;-76
2021/05/28 05:26:38;;;;;;;;;;;;;;;9.81;100.00;100742.75;5052838;28;20380;-76
2021/05/28 05:29:09;;;;;;;;;;;;;;;9.87;100.00;100746.81;5054002;28;19925;-76
2021/05/28 05:31:39;;;;;;;;;;;;;;;10.06;100.00;100764.25;5053647;28;19924;-76
2021/05/28 05:34:07;;;;;;;;;;;;;;;10.21;100.00;100770.84;5053047;28;20368;-76
2021/05/28 05:36:35;;;;;;;;;;;;;;;10.44;100.00;100782.69;5054526;28;19931;-76
2021/05/28 05:39:03;;;;;;;;;;;;;;;10.70;100.00;100790.97;5053952;28;19932;-76
2021/05/28 05:41:30;;;;;;;;;;;;;;;10.82;100.00;100793.50;5054027;28;20268;-76
2021/05/28 05:43:57;;;;;;;;;;;;;;;10.93;100.00;100805.63;5052497;28;19936;-76
2021/05/28 05:46:24;;;;;;;;;;;;;;;11.04;100.00;100802.91;5054235;28;20023;-76
2021/05/28 05:48:52;;;;;;;;;;;;;;;10.90;100.00;100800.78;5052473;28;20019;-76
2021/05/28 05:51:19;;;;;;;;;;;;;;;10.80;100.00;100798.66;5086138;28;20382;-76
2021/05/28 05:53:46;;;;;;;;;;;;;;;10.90;100.00;100806.38;5053961;28;20333;-76
2021/05/28 05:56:13;;;;;;;;;;;;;;;10.99;100.00;100812.47;5053726;28;19925;-76
2021/05/28 05:58:41;;;;;;;;;;;;;;;11.14;100.00;100810.59;5053630;28;20016;-76
2021/05/28 06:01:08;;;;;;;;;;;;;;;11.27;100.00;100818.31;5052594;28;19928;-76
2021/05/28 06:03:36;;;;;;;;;;;;;;;11.29;100.00;100813.16;5085626;28;20432;-76
2021/05/28 06:06:04;;;;;;;;;;;;;;;11.23;100.00;100817.50;5053910;28;20437;-76
2021/05/28 06:08:31;;;;;;;;;;;;;;;11.30;100.00;100822.34;5054116;28;19925;-76
2021/05/28 06:10:58;;;;;;;;;;;;;;;11.33;100.00;100815.97;5085344;28;19932;-76
2021/05/28 06:13:25;;;;;;;;;;;;;;;11.20;100.00;100811.84;5085457;28;19929;-76
2021/05/28 06:15:53;;;;;;;;;;;;;;;11.22;100.00;100810.28;5085841;28;20016;-76
2021/05/28 06:18:20;;;;;;;;;;;;;;;11.16;100.00;100814.63;5051957;28;20062;-76
2021/05/28 06:20:47;;;;;;;;;;;;;;;11.30;100.00;100809.16;5044228;28;20340;-76
2021/05/28 06:23:15;;;;;;;;;;;;;;;11.37;100.00;100809.22;5049802;28;19924;-76
2021/05/28 06:25:46;;;;;;;;;;;;;;;11.43;100.00;100799.28;5050968;28;20195;-76
2021/05/28 06:28:14;;;;;;;;;;;;;;;11.54;100.00;100813.34;5052995;28;19925;-76
2021/05/28 06:30:41;;;;;;;;;;;;;;;11.56;100.00;100808.97;5050205;28;19971;-75
2021/05/28 06:33:09;;;;;;;;;;;;;;;11.59;100.00;100805.38;5051502;28;20019;-76
2021/05/28 06:35:37;;;;;;;;;;;;;;;11.61;100.00;100807.81;5067821;28;19925;-75
2021/05/28 06:38:04;;;;;;;;;;;;;;;11.64;100.00;100802.25;5045978;28;19925;-75
2021/05/28 06:40:31;;;;;;;;;;;;;;;11.71;100.00;100818.28;5052123;28;19924;-75
2021/05/28 06:42:59;;;;;;;;;;;;;;;11.75;100.00;100817.16;5052860;28;19929;-75
2021/05/28 06:45:26;;;;;;;;;;;;;;;11.84;100.00;100822.41;5051365;28;19925;-75
2021/05/28 06:47:53;;;;;;;;;;;;;;;11.90;100.00;100823.66;5031919;28;19974;-76
2021/05/28 06:50:20;;;;;;;;;;;;;;;11.97;100.00;100816.09;5051294;28;19947;-75
2021/05/28 06:52:47;;;;;;;;;;;;;;;12.07;100.00;100808.94;5085503;28;20027;-75
2021/05/28 06:55:15;;;;;;;;;;;;;;;12.18;100.00;100819.00;5052604;28;20384;-75
2021/05/28 06:57:42;;;;;;;;;;;;;;;12.20;100.00;100807.41;5052814;28;19925;-75
2021/05/28 07:00:11;;;;;;;;;;;;;;;12.24;100.00;100797.81;5052946;28;19948;-75
2021/05/28 07:02:38;;;;;;;;;;;;;;;12.08;100.00;100777.72;5052195;28;20019;-76
2021/05/28 07:05:06;;;;;;;;;;;;;;;12.11;100.00;100770.53;5068179;28;20028;-76
2021/05/28 07:07:33;;;;;;;;;;;;;;;12.03;100.00;100754.88;5051281;28;20035;-76
2021/05/28 07:10:01;;;;;;;;;;;;;;;12.11;100.00;100754.53;5078168;28;19925;-76
2021/05/28 07:12:28;;;;;;;;;;;;;;;12.19;100.00;100739.34;5052251;28;20016;-76
2021/05/28 07:14:55;;;;;;;;;;;;;;;12.14;100.00;100734.13;5042719;28;20384;-76
2021/05/28 07:17:22;;;;;;;;;;;;;;;11.99;100.00;100723.25;5047355;28;20323;-76
2021/05/28 07:19:50;;;;;;;;;;;;;;;12.22;100.00;100720.94;5049197;28;19983;-76
2021/05/28 07:22:17;;;;;;;;;;;;;;;12.34;100.00;100717.78;5068250;28;19925;-76
2021/05/28 07:24:44;;;;;;;;;;;;;;;12.51;100.00;100719.84;5052342;28;20338;-76
2021/05/28 07:27:12;;;;;;;;;;;;;;;12.61;100.00;100705.84;5067961;28;20452;-76
2021/05/28 07:29:39;;;;;;;;;;;;;;;12.70;100.00;100699.81;5050256;28;19983;-76
2021/05/28 07:32:06;;;;;;;;;;;;;;;12.76;100.00;100689.81;5050902;28;19925;-76
2021/05/28 07:34:34;;;;;;;;;;;;;;;12.75;100.00;100677.00;5084193;28;20066;-76
2021/05/28 07:37:01;;;;;;;;;;;;;;;12.58;100.00;100656.16;5052578;28;20313;-77
2021/05/28 07:39:29;;;;;;;;;;;;;;;12.27;100.00;100642.06;5053718;28;19991;-77
2021/05/28 07:41:56;;;;;;;;;;;;;;;12.18;100.00;100628.44;5056081;28;19977;-77
2021/05/28 07:44:24;;;;;;;;;;;;;;;12.35;100.00;100633.28;5055901;28;19932;-78
2021/05/28 07:46:52;;;;;;;;;;;;;;;12.65;100.00;100630.91;5056113;28;19924;-77
2021/05/28 07:49:20;;;;;;;;;;;;;;;12.85;100.00;100627.69;5058659;28;19924;-77
2021/05/28 07:51:48;;;;;;;;;;;;;;;13.08;100.00;100639.34;5062572;28;19925;-77
2021/05/28 07:54:16;;;;;;;;;;;;;;;13.19;100.00;100623.28;5052431;28;19983;-77
2021/05/28 07:56:44;;;;;;;;;;;;;;;13.18;100.00;100605.63;5058474;28;19978;-76
2021/05/28 07:59:11;;;;;;;;;;;;;;;13.28;100.00;100589.97;5055165;28;19925;-77
2021/05/28 08:01:39;;;;;;;;;;;;;;;13.39;100.00;100573.91;5054512;28;19936;-77
2021/05/28 08:04:09;;;;;;;;;;;;;;;13.52;100.00;100558.22;5044958;28;20006;-77
2021/05/28 08:06:36;;;;;;;;;;;;;;;13.52;100.00;100547.78;5053813;28;20381;-77
2021/05/28 08:09:03;;;;;;;;;;;;;;;13.56;100.00;100525.28;5055164;28;19924;-77
2021/05/28 08:11:31;;;;;;;;;;;;;;;13.66;100.00;100508.38;5055687;28;20379;-77
2021/05/28 08:13:58;;;;;;;;;;;;;;;13.77;100.00;100483.84;5047690;28;19926;-77
2021/05/28 08:16:26;;;;;;;;;;;;;;;13.84;100.00;100460.53;5083522;28;19956;-77
2021/05/28 08:18:53;;;;;;;;;;;;;;;13.90;100.00;100445.59;5048971;28;20518;-77
2021/05/28 08:21:21;;;;;;;;;;;;;;;13.92;100.00;100431.94;5055412;28;20034;-76
2021/05/28 08:23:48;;;;;;;;;;;;;;;14.05;100.00;100407.78;5050057;28;20563;-77
2021/05/28 08:26:15;;;;;;;;;;;;;;;14.23;100.00;100407.59;5053751;28;19939;-76
2021/05/28 08:28:43;;;;;;;;;;;;;;;14.46;100.00;100393.75;5051843;28;20038;-77
2021/05/28 08:31:11;;;;;;;;;;;;;;;14.65;100.00;100376.25;5054815;28;20348;-77
2021/05/28 08:33:39;;;;;;;;;;;;;;;14.92;100.00;100356.63;5054029;28;20023;-77
2021/05/28 08:36:06;;;;;;;;;;;;;;;15.12;100.00;100332.19;5087057;28;19929;-77
2021/05/28 08:38:33;;;;;;;;;;;;;;;15.32;100.00;100305.75;5053626;28;20015;-77
2021/05/28 08:41:00;;;;;;;;;;;;;;;15.65;100.00;100293.56;5053943;28;19931;-77
2021/05/28 08:43:27;;;;;;;;;;;;;;;15.92;100.00;100268.94;5052637;28;19935;-77
2021/05/28 08:45:56;;;;;;;;;;;;;;;16.16;100.00;100236.63;5055181;28;19929;-77
2021/05/28 08:48:24;;;;;;;;;;;;;;;16.17;100.00;100186.69;5054018;28;19932;-77
2021/05/28 08:50:51;;;;;;;;;;;;;;;16.31;100.00;100141.28;5082801;28;19929;-77
2021/05/28 08:53:18;;;;;;;;;;;;;;;15.93;100.00;100104.22;5054727;28;20110;-77
2021/05/28 08:55:46;;;;;;;;;;;;;;;15.99;100.00;100082.72;5053467;28;19931;-77
2021/05/28 08:58:21;;;;;;;;;;;;;;;16.07;100.00;99929.13;5086123;28;19968;-77
2021/05/28 09:00:49;;;;;;;;;;;;;;;16.17;100.00;99904.72;5051747;28;19978;-77
2021/05/28 09:03:17;;;;;;;;;;;;;;;15.94;100.00;99885.97;5055520;28;20402;-77
2021/05/28 09:05:45;;;;;;;;;;;;;;;16.30;100.00;99879.44;5054680;28;19937;-77
2021/05/28 09:08:13;;;;;;;;;;;;;;;16.21;100.00;99872.38;5054845;28;20399;-77
2021/05/28 09:10:41;;;;;;;;;;;;;;;16.77;100.00;99863.63;5054785;28;20391;-77
2021/05/28 09:13:14;;;;;;;;;;;;;;;17.12;100.00;99859.78;5054989;28;19931;-77
2021/05/28 09:15:43;;;;;;;;;;;;;;;17.14;100.00;99849.66;5055009;28;19968;-77
2021/05/28 09:18:10;;;;;;;;;;;;;;;17.58;100.00;99839.44;5054084;28;19928;-77
2021/05/28 09:20:38;;;;;;;;;;;;;;;17.72;100.00;99822.03;5062043;28;19966;-77
2021/05/28 09:23:07;;;;;;;;;;;;;;;17.83;100.00;99817.59;5052061;28;19977;-77
2021/05/28 09:25:53;;;;;;;;;;;;;;;17.28;100.00;99806.06;5053989;28;19971;-77
2021/05/28 09:28:27;;;;;;;;;;;;;;;17.31;100.00;99805.94;5052042;28;19968;-77
2021/05/28 09:31:08;;;;;;;;;;;;;;;17.47;100.00;99793.75;5052850;28;20380;-76
2021/05/28 09:33:36;;;;;;;;;;;;;;;17.59;100.00;99773.97;5053385;28;19925;-76
2021/05/28 09:36:11;;;;;;;;;;;;;;;16.77;100.00;99753.56;5051129;28;19925;-78
2021/05/28 09:38:39;;;;;;;;;;;;;;;17.08;100.00;99763.91;5053556;28;20016;-76
2021/05/28 09:41:14;;;;;;;;;;;;;;;17.54;100.00;99748.31;5089040;28;20284;-76
2021/05/28 09:44:11;;;;;;;;;;;;;;;17.15;100.00;99743.13;5052587;28;20007;-76
2021/05/28 09:47:11;;;;;;;;;;;;;;;17.29;100.00;99737.03;5052759;28;19971;-76
2021/05/28 09:49:38;;;;;;;;;;;;;;;16.81;100.00;99734.53;5049402;28;20397;-76
2021/05/28 09:52:06;;;;;;;;;;;;;;;17.34;100.00;99728.00;5048210;28;19972;-76
2021/05/28 09:54:33;;;;;;;;;;;;;;;17.61;100.00;99719.84;5057024;28;19963;-76
2021/05/28 09:57:01;;;;;;;;;;;;;;;17.67;100.00;99707.50;5057857;28;19932;-76
2021/05/28 09:59:45;;;;;;;;;;;;;;;17.46;100.00;99707.44;5055109;28;19929;-76
2021/05/28 10:02:30;;;;;;;;;;;;;;;16.72;100.00;99711.81;5057530;28;20075;-77
2021/05/28 10:04:58;;;;;;;;;;;;;;;16.45;100.00;99694.50;5053186;28;20036;-77
2021/05/28 10:07:27;;;;;;;;;;;;;;;17.15;100.00;99698.75;5052352;28;19937;-78
2021/05/28 10:09:56;;;;;;;;;;;;;;;17.08;100.00;99692.53;5053338;28;20023;-78
2021/05/28 10:12:24;;;;;;;;;;;;;;;17.11;100.00;99680.34;5053431;28;20040;-77
2021/05/28 10:14:52;;;;;;;;;;;;;;;17.27;100.00;99678.16;5068806;28;20371;-77
2021/05/28 10:17:19;;;;;;;;;;;;;;;17.56;100.00;99680.84;5051680;28;20146;-78
2021/05/28 10:19:47;;;;;;;;;;;;;;;17.63;100.00;99677.78;5053071;28;19986;-77
2021/05/28 10:22:17;;;;;;;;;;;;;;;17.85;100.00;99661.66;5053166;28;19978;-78
2021/05/28 10:24:45;;;;;;;;;;;;;;;18.29;100.00;99663.25;5053132;28;20205;-76
2021/05/28 10:27:19;;;;;;;;;;;;;;;18.36;100.00;99654.47;5053249;28;19925;-76
2021/05/28 10:29:48;;;;;;;;;;;;;;;18.41;100.00;99645.44;5053002;28;20017;-76
2021/05/28 10:32:15;;;;;;;;;;;;;;;18.14;100.00;99648.06;5051730;28;19929;-76
2021/05/28 10:35:01;;;;;;;;;;;;;;;17.97;100.00;99646.66;5053574;28;19925;-76
2021/05/28 10:37:29;;;;;;;;;;;;;;;18.35;100.00;99633.13;5053043;28;20335;-76
2021/05/28 10:39:56;;;;;;;;;;;;;;;18.06;100.00;99635.44;5052825;28;19925;-76
2021/05/28 10:42:23;;;;;;;;;;;;;;;18.61;100.00;99640.22;5053021;28;19932;-76
2021/05/28 10:44:50;;;;;;;;;;;;;;;18.61;100.00;99633.75;5085391;28;19936;-76
2021/05/28 10:47:19;;;;;;;;;;;;;;;18.85;100.00;99621.44;5067747;28;19933;-76
2021/05/28 10:49:46;;;;;;;;;;;;;;;19.00;100.00;99639.44;5052875;28;19924;-76
2021/05/28 10:52:14;;;;;;;;;;;;;;;17.98;100.00;99629.25;5084518;28;19925;-76
2021/05/28 10:54:52;;;;;;;;;;;;;;;17.45;100.00;99638.03;5052897;28;20339;-76
2021/05/28 10:57:19;;;;;;;;;;;;;;;17.50;100.00;99629.78;5052636;28;19924;-76
2021/05/28 10:59:48;;;;;;;;;;;;;;;17.42;100.00;99624.78;5052646;28;20015;-76
2021/05/28 11:02:16;;;;;;;;;;;;;;;17.81;100.00;99621.44;5052572;28;19932;-76
2021/05/28 11:04:49;;;;;;;;;;;;;;;18.10;100.00;99627.59;5085017;28;19928;-76
2021/05/28 11:07:17;;;;;;;;;;;;;;;18.44;100.00;99621.06;5052734;28;19960;-76
2021/05/28 11:09:51;;;;;;;;;;;;;;;18.99;100.00;99614.41;5052343;28;19925;-76
2021/05/28 11:12:18;;;;;;;;;;;;;;;19.12;100.00;99617.91;5050913;28;19925;-76
2021/05/28 11:14:57;;;;;;;;;;;;;;;18.85;100.00;99614.97;5052232;28;19925;-76
2021/05/28 11:17:25;;;;;;;;;;;;;;;19.09;100.00;99624.50;5052036;28;19924;-77
2021/05/28 11:19:56;;;;;;;;;;;;;;;19.60;100.00;99617.06;5051086;28;19925;-76
2021/05/28 11:22:27;;;;;;;;;;;;;;;19.55;100.00;99629.03;5067778;28;20347;-76
2021/05/28 11:24:56;;;;;;;;;;;;;;;19.67;100.00;99625.28;5052204;28;20308;-76
2021/05/28 11:27:23;;;;;;;;;;;;;;;19.76;100.00;99624.47;5052312;28;19928;-76
2021/05/28 11:29:54;;;;;;;;;;;;;;;19.44;100.00;99623.84;5052024;28;20410;-76
2021/05/28 11:32:31;;;;;;;;;;;;;;;18.66;100.00;99621.84;5052325;28;19936;-76
2021/05/28 11:35:17;;;;;;;;;;;;;;;18.35;100.00;99621.78;5051071;28;19925;-76
2021/05/28 11:37:48;;;;;;;;;;;;;;;18.51;100.00;99624.41;5052221;28;19925;-76
2021/05/28 11:40:15;;;;;;;;;;;;;;;18.71;100.00;99616.34;5052155;28;20284;-76
2021/05/28 11:42:42;;;;;;;;;;;;;;;18.92;100.00;99620.34;5052180;28;19983;-76
2021/05/28 11:45:11;;;;;;;;;;;;;;;18.13;100.00;99626.66;5051856;28;20344;-76
2021/05/28 11:47:38;;;;;;;;;;;;;;;17.95;100.00;99626.53;5051194;28;20439;-76
2021/05/28 11:50:07;;;;;;;;;;;;;;;18.25;100.00;99617.31;5050728;28;20308;-76
2021/05/28 11:52:37;;;;;;;;;;;;;;;18.32;100.00;99621.91;5052127;28;19925;-76
2021/05/28 11:55:09;;;;;;;;;;;;;;;17.69;100.00;99625.09;5050868;28;20420;-76
2021/05/28 11:57:37;;;;;;;;;;;;;;;17.63;100.00;99621.28;5051920;28;19925;-76
2021/05/28 12:00:08;;;;;;;;;;;;;;;17.42;100.00;99624.78;5050647;28;20346;-76
2021/05/28 12:02:51;;;;;;;;;;;;;;;17.46;100.00;99623.47;5051888;28;20441;-76
2021/05/28 12:05:22;;;;;;;;;;;;;;;17.45;100.00;99633.19;5051563;28;19924;-76
2021/05/28 12:07:51;;;;;;;;;;;;;;;17.28;100.00;99628.13;5052000;28;20008;-76
2021/05/28 12:10:19;;;;;;;;;;;;;;;17.68;100.00;99631.97;5051795;28;20054;-76
2021/05/28 12:12:49;;;;;;;;;;;;;;;17.58;100.00;99633.16;5051787;28;20376;-76
2021/05/28 12:15:16;;;;;;;;;;;;;;;17.32;100.00;99625.97;5051778;28;19937;-76
2021/05/28 12:17:45;;;;;;;;;;;;;;;17.72;100.00;99627.00;5051490;28;19928;-76
2021/05/28 12:20:17;;;;;;;;;;;;;;;18.25;100.00;99634.28;5050621;28;19982;-75
2021/05/28 12:23:00;;;;;;;;;;;;;;;17.71;100.00;99631.06;5051849;28;19975;-76
2021/05/28 12:25:28;;;;;;;;;;;;;;;17.61;100.00;99635.06;5054728;28;19936;-76
2021/05/28 12:28:09;;;;;;;;;;;;;;;17.73;100.00;99626.56;5055295;28;20002;-76
2021/05/28 12:30:38;;;;;;;;;;;;;;;17.74;100.00;99635.78;5055420;28;19925;-76
2021/05/28 12:33:05;;;;;;;;;;;;;;;18.31;100.00;99626.78;5055358;28;20015;-78
2021/05/28 12:35:32;;;;;;;;;;;;;;;18.83;100.00;99628.81;5041303;28;19929;-76
2021/05/28 12:38:10;;;;;;;;;;;;;;;18.98;100.00;99624.94;5055283;28;19955;-76
2021/05/28 12:40:38;;;;;;;;;;;;;;;19.08;100.00;99623.72;5055278;28;19932;-76